Latest Weather Observations for Devonport Airport

IDT60801

Issued at 4:31 pm EST Tuesday 28 April 2015 (issued every 30 minutes, with the page automatically refreshed every 10 minutes)

About weather observations | Map of weather stations | Latest weather observations for TAS | Other Formats
Station Details ID: 091126 Name: DEVONPORT AIRPORT Lat: -41.17 Lon: 146.43 Height: 8.0 m
Data from the previous 72 hours. | See also: Recent months at Devonport Airport
Date/Time
EST
Temp
°C
App
Temp
°C
Dew
Point
Rel
Hum
%
Delta-T
°C
Wind Press
QNH
hPa
Press
MSL
hPa
Rain
since 9 am
mm
Dir
 
Spd
km/h
Gust
km/h
Spd
kts
Gust
kts
28/04:30pm 14.5 12.4 6.8 60 3.7 NW 7 9 4 5 1026.3 1026.3 0.0
28/04:00pm 14.6 12.2 6.9 60 3.7 NW 9 15 5 8 1026.2 1026.2 0.0
28/03:30pm 14.5 11.4 7.1 61 3.6 NNW 13 17 7 9 1026.2 1026.2 0.0
28/03:00pm 14.3 10.6 6.4 59 3.8 NNW 15 19 8 10 1026.1 1026.1 0.0
28/02:30pm 14.5 10.9 6.6 59 3.8 NNW 15 19 8 10 1026.1 1026.1 0.0
28/02:00pm 14.3 10.2 6.4 59 3.8 NNW 17 20 9 11 1026.3 1026.3 0.0
28/01:30pm 14.3 10.6 6.2 58 3.9 NNW 15 20 8 11 1026.6 1026.6 0.0
28/01:00pm 14.2 10.3 7.0 62 3.5 N 17 20 9 11 1026.9 1026.9 0.0
28/12:30pm 13.9 9.8 6.0 59 3.8 N 17 19 9 10 1027.1 1027.1 0.0
28/12:00pm 13.7 10.2 5.6 58 3.8 N 13 17 7 9 1027.3 1027.3 0.0
28/11:30am 14.1 12.0 5.7 57 4.0 NNE 6 13 3 7 1027.6 1027.6 0.0
28/11:00am 13.4 11.4 4.6 55 4.0 SE 4 9 2 5 1027.8 1027.8 0.0
28/10:30am 12.7 10.0 3.9 55 4.0 SE 7 9 4 5 1027.9 1027.9 0.0
28/10:00am 12.1 9.6 5.0 62 3.2 SSE 7 11 4 6 1027.8 1027.8 0.0
28/09:30am 11.1 9.0 5.8 70 2.4 SSE 6 9 3 5 1027.6 1027.6 0.0
28/09:00am 9.6 7.4 6.3 80 1.5 S 7 9 4 5 1027.6 1027.6 0.0
28/08:30am 7.4 4.2 4.9 84 1.1 S 11 13 6 7 1027.6 1027.6 0.0
28/08:00am 5.4 1.6 3.7 89 0.7 SSE 13 17 7 9 1027.3 1027.3 0.0
28/07:30am 4.1 -0.3 2.8 91 0.5 S 15 17 8 9 1026.8 1026.8 0.0
28/07:00am 3.2 -0.2 1.9 91 0.5 S 9 11 5 6 1026.6 1026.6 0.0
28/06:30am 3.1 0.0 1.5 89 0.6 S 7 11 4 6 1026.3 1026.3 0.0
28/06:00am 4.0 -0.1 2.4 89 0.6 SSE 13 15 7 8 1025.9 1025.9 0.0
28/05:30am 4.3 1.4 2.7 89 0.6 SSE 7 9 4 5 1025.6 1025.6 0.0
28/05:00am 4.8 0.8 3.0 88 0.7 SSE 13 17 7 9 1025.4 1025.4 0.0
28/04:30am 4.6 0.6 2.8 88 0.7 SSE 13 17 7 9 1025.4 1025.4 0.0
28/04:00am 4.3 1.0 2.5 88 0.7 S 9 13 5 7 1025.0 1025.0 0.0
28/03:30am 4.4 0.8 2.9 90 0.6 SSW 11 13 6 7 1024.8 1024.8 0.0
28/03:00am 5.2 2.0 3.1 86 0.9 S 9 13 5 7 1024.7 1024.7 0.0
28/02:30am 6.0 2.5 3.7 85 1.0 SSW 11 13 6 7 1024.6 1024.6 0.0
28/02:00am 4.8 1.8 2.2 83 1.0 SW 7 11 4 6 1024.5 1024.5 0.0
28/01:30am 5.7 2.2 3.5 86 0.9 S 11 13 6 7 1024.8 1024.8 0.0
28/01:00am 5.9 3.2 3.7 86 0.9 S 7 11 4 6 1024.5 1024.5 0.0
28/12:30am 5.9 3.4 3.6 85 1.0 SW 6 9 3 5 1024.5 1024.5 0.0
28/12:00am 6.4 3.0 3.9 84 1.1 SSW 11 15 6 8 1024.4 1024.4 0.0
 
Date/Time
EST
Temp
°C
App
Temp
°C
Dew
Point
Rel
Hum
%
Delta-T
°C
Wind Press
QNH
hPa
Press
MSL
hPa
Rain
since 9 am
mm
Dir
 
Spd
km/h
Gust
km/h
Spd
kts
Gust
kts
27/11:30pm 7.1 2.6 4.1 81 1.3 SSE 17 19 9 10 1024.3 1024.3 0.0
27/11:00pm 7.2 3.1 4.3 82 1.2 SSE 15 20 8 11 1024.0 1024.0 0.0
27/10:30pm 7.3 2.8 4.4 82 1.3 SSE 17 19 9 10 1024.1 1024.1 0.0
27/10:00pm 8.2 3.8 5.0 80 1.4 S 17 20 9 11 1023.8 1023.8 0.0
27/09:30pm 7.3 3.7 4.8 84 1.1 S 13 17 7 9 1023.5 1023.5 0.0
27/09:00pm 7.1 3.8 4.6 84 1.1 S 11 11 6 6 1023.4 1023.4 0.0
27/08:30pm 8.8 5.3 5.5 80 1.5 S 13 15 7 8 1023.1 1023.1 0.0
27/08:00pm 9.2 5.7 5.6 78 1.6 S 13 15 7 8 1022.5 1022.5 0.0
27/07:30pm 9.2 5.8 5.8 79 1.5 SSE 13 15 7 8 1022.3 1022.3 0.0
27/07:00pm 10.1 6.6 7.0 81 1.5 SSE 15 20 8 11 1021.9 1021.9 0.0
27/06:30pm 10.3 7.6 7.5 83 1.3 S 11 17 6 9 1021.3 1021.3 0.0
27/06:00pm 10.8 8.8 7.1 78 1.8 SE 7 9 4 5 1020.8 1020.8 0.0
27/05:30pm 13.0 11.1 7.5 69 2.7 W 7 7 4 4 1020.2 1020.1 0.0
27/05:00pm 14.3 12.0 7.6 64 3.3 NNW 9 11 5 6 1019.9 1019.8 0.0
27/04:30pm 15.0 12.5 8.0 63 3.5 NNW 11 15 6 8 1019.6 1019.5 0.0
27/04:00pm 15.3 12.5 7.1 58 4.0 N 11 15 6 8 1019.4 1019.3 0.0
27/03:30pm 15.2 11.9 6.2 55 4.3 N 13 17 7 9 1019.2 1019.1 0.0
27/03:00pm 15.2 12.0 7.0 58 4.0 N 13 15 7 8 1019.2 1019.1 0.0
27/02:30pm 15.1 12.1 6.1 55 4.3 N 11 15 6 8 1019.1 1019.0 0.0
27/02:00pm 15.0 11.7 6.6 57 4.1 NNW 13 17 7 9 1019.0 1018.9 0.0
27/01:30pm 15.0 11.8 6.8 58 4.0 NNW 13 19 7 10 1019.0 1018.9 0.0
27/01:00pm 14.7 11.1 6.8 59 3.8 NW 15 19 8 10 1019.0 1018.9 0.0
27/12:30pm 14.4 10.7 6.5 59 3.8 WNW 15 19 8 10 1019.1 1019.0 0.0
27/12:00pm 14.2 11.0 7.0 62 3.5 NNW 13 17 7 9 1019.3 1019.2 0.0
27/11:30am 14.3 11.1 6.9 61 3.6 NNW 13 17 7 9 1019.5 1019.4 0.0
27/11:00am 14.1 11.4 7.2 63 3.4 NW 11 15 6 8 1019.5 1019.4 0.0
27/10:30am 14.1 10.9 6.9 62 3.5 SW 13 20 7 11 1019.5 1019.4 0.0
27/10:00am 13.2 9.9 6.3 63 3.3 WSW 13 17 7 9 1019.3 1019.2 0.0
27/09:30am 12.3 8.9 6.1 66 2.9 WSW 13 19 7 10 1019.1 1019.0 0.0
27/09:00am 11.0 8.8 6.4 73 2.2 WSW 7 13 4 7 1019.1 1019.0 0.0
27/08:30am 8.2 6.1 6.7 90 0.7 S 7 9 4 5 1019.0 1018.9 0.0
27/08:00am 5.7 2.8 4.7 93 0.4 SSE 9 11 5 6 1018.8 1018.7 0.0
27/07:30am 4.9 2.2 3.7 92 0.5 S 7 9 4 5 1018.5 1018.4 0.0
27/07:00am 4.8 1.6 3.3 90 0.6 S 9 9 5 5 1018.1 1018.0 0.0
27/06:30am 5.6 3.1 3.6 87 0.8 S 6 9 3 5 1017.6 1017.6 0.0
27/06:00am 7.3 4.0 4.4 82 1.3 WSW 11 13 6 7 1017.6 1017.6 0.0
27/05:30am 6.9 3.2 4.4 84 1.1 WSW 13 15 7 8 1017.5 1017.5 0.0
27/05:00am 6.8 3.0 3.8 81 1.3 WSW 13 17 7 9 1017.3 1017.3 0.0
27/04:30am 7.8 4.5 4.6 80 1.4 WSW 11 13 6 7 1016.9 1016.9 0.0
27/04:00am 6.9 3.6 4.7 86 1.0 WSW 11 13 6 7 1016.7 1016.7 0.0
27/03:30am 6.8 2.4 4.8 87 0.9 WSW 17 20 9 11 1016.5 1016.5 0.0
27/03:00am 7.2 2.8 4.9 85 1.0 WSW 17 19 9 10 1016.5 1016.5 0.0
27/02:30am 7.0 3.0 5.0 87 0.9 WSW 15 19 8 10 1016.5 1016.5 0.0
27/02:00am 6.9 2.9 4.9 87 0.9 W 15 17 8 9 1016.5 1016.5 0.0
27/01:30am 6.8 2.3 4.3 84 1.1 W 17 19 9 10 1016.4 1016.4 0.0
27/01:00am 7.1 2.6 4.2 82 1.2 WSW 17 22 9 12 1016.4 1016.4 0.0
27/12:30am 7.8 3.8 5.1 83 1.2 WSW 15 17 8 9 1016.6 1016.6 0.0
27/12:00am 8.1 4.1 5.0 81 1.4 W 15 17 8 9 1016.4 1016.4 0.0
 
Date/Time
EST
Temp
°C
App
Temp
°C
Dew
Point
Rel
Hum
%
Delta-T
°C
Wind Press
QNH
hPa
Press
MSL
hPa
Rain
since 9 am
mm
Dir
 
Spd
km/h
Gust
km/h
Spd
kts
Gust
kts
26/11:30pm 9.2 5.6 4.8 74 2.0 WSW 13 19 7 10 1016.2 1016.2 0.0
26/11:00pm 8.3 3.6 5.2 81 1.4 WSW 19 22 10 12 1016.0 1016.0 0.0
26/10:30pm 9.1 4.9 5.7 79 1.5 W 17 20 9 11 1016.0 1016.0 0.0
26/10:00pm 8.9 6.2 5.8 81 1.4 W 9 13 5 7 1015.8 1015.8 0.0
26/09:30pm 8.2 3.4 5.8 85 1.1 WSW 20 24 11 13 1015.7 1015.7 0.0
26/09:00pm 8.8 5.4 6.1 83 1.2 WSW 13 15 7 8 1015.7 1015.7 0.0
26/08:30pm 9.1 4.5 6.7 85 1.1 WSW 20 24 11 13 1015.4 1015.4 0.0
26/08:00pm 9.1 4.8 7.1 87 0.9 W 19 22 10 12 1015.1 1015.1 0.0
26/07:30pm 9.5 5.2 6.8 83 1.3 WSW 19 20 10 11 1015.2 1015.2 0.0
26/07:00pm 10.1 6.1 6.8 80 1.5 WSW 17 20 9 11 1015.1 1015.1 0.0
26/06:30pm 10.6 6.3 6.9 78 1.7 WSW 19 22 10 12 1014.7 1014.7 0.0
26/06:00pm 11.0 7.1 7.1 77 1.9 WSW 17 22 9 12 1014.3 1014.3 0.0
26/05:30pm 11.9 7.5 6.6 70 2.5 WSW 19 22 10 12 1014.0 1014.0 0.0
26/05:00pm 13.0 9.4 6.8 66 3.0 WSW 15 22 8 12 1013.7 1013.7 0.0
26/04:30pm 14.3 7.9 6.9 61 3.6 WSW 30 37 16 20 1013.3 1013.3 0.0
26/04:00pm 15.1 9.9 7.4 60 3.8 WSW 24 35 13 19 1013.0 1013.0 0.0
26/03:30pm 14.9 8.6 7.2 60 3.8 WSW 30 39 16 21 1012.9 1012.9 0.0
26/03:00pm 15.6 9.7 7.6 59 4.0 WSW 28 37 15 20 1012.7 1012.7 0.0
26/02:30pm 16.1 10.2 7.6 57 4.2 WSW 28 35 15 19 1012.6 1012.6 0.0
26/02:00pm 15.6 10.3 6.6 55 4.4 WSW 24 32 13 17 1012.7 1012.7 0.0
26/01:30pm 15.6 9.1 6.6 55 4.4 WSW 30 37 16 20 1012.7 1012.7 0.0
26/01:00pm 15.8 10.1 6.8 55 4.4 WSW 26 37 14 20 1012.8 1012.8 0.0
26/12:30pm 15.7 11.6 7.7 59 4.0 SW 19 26 10 14 1013.2 1013.2 0.0
26/12:00pm 14.3 9.8 6.2 58 3.9 SW 19 26 10 14 1013.5 1013.5 0.0
26/11:30am 14.1 9.3 5.7 57 4.0 SW 20 39 11 21 1013.7 1013.7 0.0
26/11:00am 13.5 9.1 4.9 56 4.0 SSW 17 28 9 15 1014.0 1014.0 0.0
26/10:30am 13.0 8.4 5.7 61 3.4 SSW 19 28 10 15 1014.2 1014.2 0.0
26/10:00am 12.4 7.8 5.6 63 3.2 SSW 19 26 10 14 1014.2 1014.2 0.0
26/09:30am 11.9 8.6 6.2 68 2.7 SSW 13 19 7 10 1014.4 1014.4 0.0
26/09:00am 10.8 7.6 5.3 69 2.5 SSW 11 15 6 8 1014.3 1014.3 5.8
26/08:30am 9.1 5.9 5.1 76 1.8 S 11 11 6 6 1014.3 1014.3 5.8
26/08:00am 9.7 7.4 5.5 75 1.9 SSW 7 13 4 7 1014.2 1014.2 5.8
26/07:30am 9.7 7.0 5.7 76 1.8 SSW 9 13 5 7 1013.8 1013.8 5.8
26/07:00am 9.9 6.8 5.5 74 2.0 SSW 11 15 6 8 1013.4 1013.4 5.8
26/06:30am 10.3 7.0 6.5 77 1.8 SW 13 17 7 9 1013.0 1013.0 5.8
26/06:00am 10.4 8.9 8.3 87 1.0 SSW 6 9 3 5 1012.7 1012.7 5.8
26/05:30am 10.6 8.9 8.5 87 1.0 SW 7 9 4 5 1012.8 1012.8 5.8
26/05:00am 10.7 7.9 8.5 86 1.1 S 13 15 7 8 1012.6 1012.6 5.8
26/04:30am 10.9 8.0 8.3 84 1.3 S 13 17 7 9 1012.4 1012.4 5.8
26/04:00am 11.1 8.6 8.3 83 1.4 SSE 11 13 6 7 1012.5 1012.5 5.8
26/03:30am 10.6 9.2 9.0 90 0.8 S 6 7 3 4 1012.4 1012.4 5.8
26/03:00am 10.6 8.9 8.5 87 1.0 S 7 11 4 6 1012.4 1012.4 5.8
26/02:30am 11.1 8.8 9.0 87 1.0 S 11 17 6 9 1012.5 1012.5 5.8
26/02:00am 11.0 8.8 9.3 89 0.8 S 11 13 6 7 1012.5 1012.5 5.8
26/01:30am 11.2 8.5 9.1 87 1.0 S 13 15 7 8 1012.7 1012.7 5.8
26/01:00am 11.3 9.1 9.2 87 1.0 S 11 15 6 8 1012.6 1012.6 5.8
26/12:30am 11.5 8.9 9.4 87 1.1 S 13 17 7 9 1012.6 1012.6 5.8
26/12:00am 11.7 10.4 9.8 88 1.0 SSE 7 11 4 6 1012.3 1012.3 5.8
 
Date/Time
EST
Temp
°C
App
Temp
°C
Dew
Point
Rel
Hum
%
Delta-T
°C
Wind Press
QNH
hPa
Press
MSL
hPa
Rain
since 9 am
mm
Dir
 
Spd
km/h
Gust
km/h
Spd
kts
Gust
kts
25/11:30pm 11.8 10.1 9.7 87 1.1 SSE 9 13 5 7 1012.3 1012.3 5.8
25/11:00pm 12.0 10.0 10.1 88 1.0 SSE 11 15 6 8 1012.1 1012.1 5.8
25/10:30pm 12.2 9.9 10.4 89 0.9 SE 13 17 7 9 1012.2 1012.2 5.8
25/10:00pm 12.5 10.7 10.7 89 0.9 SE 11 17 6 9 1012.2 1012.2 5.8
25/09:30pm 12.1 10.5 11.5 96 0.3 ESE 11 13 6 7 1012.1 1012.1 5.8
25/09:00pm 12.8 10.8 11.4 91 0.7 SE 13 17 7 9 1011.8 1011.8 5.0
25/08:40pm 13.3 11.3 11.4 88 1.0 SE 13 17 7 9 1011.7 1011.7 4.8
25/08:30pm 13.9 13.0 12.5 91 0.8 SSE 9 13 5 7 1011.5 1011.5 4.4
25/08:17pm 14.4 14.0 13.0 91 0.8 SSE 7 19 4 10 1011.5 1011.5 1.6
25/08:00pm 15.1 14.2 12.6 85 1.4 SW 9 13 5 7 1011.3 1011.3 0.0
25/07:30pm 15.5 14.0 13.0 85 1.4 WNW 13 17 7 9 1011.2 1011.2 0.0
25/07:00pm 15.5 13.9 12.8 84 1.5 WNW 13 15 7 8 1010.9 1010.9 0.0
25/06:30pm 15.6 13.6 12.7 83 1.6 WNW 15 17 8 9 1010.7 1010.7 0.0
25/06:00pm 15.5 13.8 12.6 83 1.6 W 13 17 7 9 1010.2 1010.2 0.0
25/05:30pm 15.7 14.0 12.5 81 1.8 WNW 13 17 7 9 1009.9 1009.9 0.0
25/05:00pm 16.0 14.2 12.2 78 2.1 WNW 13 15 7 8 1009.4 1009.4 0.0

Other Formats:

Comma delimited format used in spreadsheet applications
http://www.bom.gov.au/fwo/IDT60801/IDT60801.95960.axf

JavaScript Object Notation format (JSON) in row-major order
http://www.bom.gov.au/fwo/IDT60801/IDT60801.95960.json